createdAt,value
2023-03-22T00:02:39.651Z,0.00
2023-03-22T00:17:39.574Z,0.00
2023-03-22T00:32:39.767Z,0.00
2023-03-22T00:47:40.495Z,0.00
2023-03-22T01:02:41.725Z,0.00
2023-03-22T01:17:42.288Z,0.00
2023-03-22T01:32:42.559Z,0.00
2023-03-22T01:47:43.242Z,0.00
2023-03-22T02:02:44.140Z,0.00
2023-03-22T02:17:44.102Z,0.00
2023-03-22T02:32:44.325Z,0.00
2023-03-22T02:47:44.580Z,0.00
2023-03-22T03:02:45.283Z,0.00
2023-03-22T03:17:46.331Z,0.00
2023-03-22T03:32:47.173Z,0.00
2023-03-22T03:47:47.898Z,0.00
2023-03-22T04:02:48.888Z,0.00
2023-03-22T04:17:49.530Z,0.00
2023-03-22T04:32:50.311Z,0.00
2023-03-22T04:47:50.550Z,0.00
2023-03-22T05:02:51.428Z,0.00
2023-03-22T05:17:51.952Z,11.25
2023-03-22T05:32:52.244Z,16.88
2023-03-22T05:47:52.987Z,39.38
2023-03-22T06:02:54.176Z,50.62
2023-03-22T06:17:54.779Z,67.50
2023-03-22T06:32:54.932Z,84.38
2023-03-22T06:47:54.941Z,112.50
2023-03-22T07:02:55.525Z,163.12
2023-03-22T07:17:55.627Z,219.38
2023-03-22T07:32:55.965Z,303.75
2023-03-22T07:47:56.450Z,388.12
2023-03-22T08:02:57.147Z,365.62
2023-03-22T08:17:57.185Z,393.75
2023-03-22T08:32:57.480Z,399.38
2023-03-22T08:47:57.744Z,483.75
2023-03-22T09:02:58.525Z,765.00
2023-03-22T09:17:59.154Z,753.75
2023-03-22T09:32:59.762Z,877.50
2023-03-22T09:48:00.636Z,714.38
2023-03-22T10:03:00.895Z,1198.12
2023-03-22T10:18:00.896Z,641.25
2023-03-22T10:33:01.179Z,697.50
2023-03-22T10:48:01.322Z,590.62
2023-03-22T11:03:01.451Z,1766.25
2023-03-22T11:18:01.686Z,691.88
2023-03-22T11:33:01.988Z,2244.38
2023-03-22T11:48:02.155Z,2868.75
2023-03-22T12:03:03.038Z,1749.38
2023-03-22T12:18:04.969Z,3256.88
2023-03-22T12:33:06.793Z,3836.25
2023-03-22T12:48:07.328Z,3121.88
2023-03-22T13:03:10.327Z,810.00
2023-03-22T13:18:11.768Z,2733.75
2023-03-22T13:33:12.459Z,630.00
2023-03-22T13:48:13.269Z,945.00
2023-03-22T14:03:14.415Z,1361.25
2023-03-22T14:18:15.069Z,2621.25
2023-03-22T14:46:36.990Z,652.50
2023-03-22T15:01:37.264Z,371.25
2023-03-22T15:16:37.449Z,528.75
2023-03-22T15:31:38.135Z,534.38
2023-03-22T15:46:38.884Z,225.00
2023-03-22T16:01:39.611Z,123.75
2023-03-22T16:16:40.311Z,118.12
2023-03-22T16:31:45.274Z,90.00
2023-03-22T16:46:45.905Z,61.88
2023-03-22T17:01:46.307Z,28.12
2023-03-22T17:16:46.346Z,5.62
2023-03-22T17:31:57.830Z,0.00
2023-03-22T18:01:57.772Z,0.00
2023-03-22T18:16:58.518Z,0.00
2023-03-22T18:46:59.111Z,0.00
2023-03-22T19:02:09.868Z,0.00
2023-03-22T19:17:04.669Z,0.00
2023-03-22T19:32:04.742Z,0.00
2023-03-22T19:47:04.860Z,0.00
2023-03-22T20:02:05.193Z,0.00
2023-03-22T20:17:07.006Z,0.00
2023-03-22T20:32:10.917Z,0.00
2023-03-22T20:47:12.224Z,0.00
2023-03-22T21:02:12.553Z,0.00
2023-03-22T21:17:13.010Z,0.00
2023-03-22T21:32:13.806Z,0.00
2023-03-22T21:47:14.042Z,0.00
2023-03-22T22:02:14.365Z,0.00
2023-03-22T22:17:14.422Z,0.00
2023-03-22T22:32:14.561Z,0.00
2023-03-22T22:47:15.271Z,0.00
2023-03-22T23:02:16.263Z,0.00
2023-03-22T23:17:16.175Z,0.00
2023-03-22T23:32:16.386Z,0.00
2023-03-22T23:47:16.633Z,0.00
